Michigan Center, MI (49254)

9:48 PM EST on February 07, 2016 (GMT -0500)
APRSWXNET | | Change Station
CLOSE
Current Station
Personal Weather Station
Location: Michigan Center, MI
Elevation: 951 ft
Nearby Weather Stations

Elev 951 ft 42.26 °N, 84.31 °W | Updated 23 minutes ago

Mostly Cloudy
Mostly Cloudy
41 °F
Feels Like 41 °F
N
2
Wind Variable Wind from SSE
Gusts 3.0 mph

Today
High -- | Low -- °F
--% Chance of Precip.
Yesterday
High -- | Low -- °F
Precip. -- in
Pressure 29.74 in
Visibility 10.0 miles
Clouds Mostly Cloudy 3500 ft
Windchill 41 °F
Dew Point 29 °F
Humidity 62%
Rainfall in
Snow Depth Not available.
7:44 AM 5:58 PM
Waning Crescent, 0% visible
METAR KJXN 080156Z AUTO 22008KT 10SM BKN035 06/M01 A2972 RMK AO2 SLP071 T00561011 TSNO
Pressure 29.74 in
Visibility 10.0 miles
Clouds Mostly Cloudy 3500 ft
Windchill 41 °F
Dew Point 29 °F
Humidity 62%
Rainfall in
Snow Depth Not available.
7:44 AM 5:58 PM
Waning Crescent, 0% visible
METAR KJXN 080156Z AUTO 22008KT 10SM BKN035 06/M01 A2972 RMK AO2 SLP071 T00561011 TSNO

10-Day Weather Forecast

Almanac

Astronomy

Feb. 07, 2016 Rise Set
Actual Time
Civil Twilight
Nautical Twilight
Astronomical Twilight
Moon
Length of Visible Light
Length of Day
Tomorrow will be .
, % of the Moon is Illuminated

Today's Extremes

State Highs State Lows

Community

WunderPhotos

Upload Photos

1,891,373 photos uploaded!

WunderBlog® & News

Nearby

Air Quality

  Air Quality AQ Index Pollutant
Not available.

Snow Depth

Station Depth Elevation

Earthquake Activity

City Distance Mag. Time & Date
Minimum magnitude displayed is 2.5.

Coastal Water Temperatures

Place Temperature

Stations

Nearby Weather Stations

Station Location Temp. Windchill Dew Point Humidity Wind Precip. Elev Updated Type
                   

Watches & Warnings

There are currently no watches in effect.